EJA303 KAPC-KMRY
Flight info
| Callsign | EJA303 |
|---|---|
| Flight time | 0h 30m |
| Altitude | 12500 |
| Route | NAPAA4 SGD SFO OSI V25 SNS |
| Aircraft | C700/M-V/N |
Departure
| Time | 2026-05-06 14:31 |
|---|---|
| Airport | Napa County Airport (KAPC) |
Arrival
| Time | 2026-05-06 15:02 |
|---|---|
| Airport | Monterey Regional Airport (KMRY) |
| Time | Latitude | Longitude | Altitude | Speed | Heading |
|---|---|---|---|---|---|
| 2026-05-06 14:21 | 38.21552 | -122.27328 | 18 ft | 0 kts | 249° |
| 2026-05-06 14:26 | 38.21549 | -122.27339 | 18 ft | 4 kts | 249° |
| 2026-05-06 14:27 | 38.21539 | -122.27372 | 17 ft | 0 kts | 250° |
| 2026-05-06 14:27 | 38.21539 | -122.27373 | 17 ft | 1 kts | 254° |
| 2026-05-06 14:27 | 38.21583 | -122.27401 | 16 ft | 18 kts | 342° |
| 2026-05-06 14:27 | 38.21671 | -122.27475 | 14 ft | 16 kts | 272° |
| 2026-05-06 14:28 | 38.21603 | -122.27545 | 15 ft | 11 kts | 207° |
| 2026-05-06 14:28 | 38.21593 | -122.27540 | 15 ft | 1 kts | 99° |
| 2026-05-06 14:28 | 38.21592 | -122.27524 | 17 ft | 6 kts | 92° |
| 2026-05-06 14:28 | 38.21547 | -122.27455 | 17 ft | 18 kts | 150° |
| 2026-05-06 14:29 | 38.21439 | -122.27385 | 19 ft | 11 kts | 155° |
| 2026-05-06 14:29 | 38.21381 | -122.27349 | 22 ft | 8 kts | 152° |
| 2026-05-06 14:29 | 38.21336 | -122.27319 | 21 ft | 7 kts | 152° |
| 2026-05-06 14:29 | 38.21289 | -122.27288 | 23 ft | 8 kts | 153° |
| 2026-05-06 14:30 | 38.21239 | -122.27256 | 22 ft | 8 kts | 153° |
| 2026-05-06 14:30 | 38.21187 | -122.27221 | 24 ft | 9 kts | 153° |
| 2026-05-06 14:30 | 38.21126 | -122.27182 | 22 ft | 11 kts | 154° |
| 2026-05-06 14:30 | 38.21079 | -122.27216 | 22 ft | 11 kts | 251° |
| 2026-05-06 14:31 | 38.20996 | -122.27644 | 21 ft | 89 kts | 256° |
| 2026-05-06 14:31 | 38.20803 | -122.28690 | 46 ft | 147 kts | 257° |
| 2026-05-06 14:31 | 38.20569 | -122.29924 | 873 ft | 143 kts | 257° |
| 2026-05-06 14:31 | 38.20108 | -122.31201 | 1388 ft | 173 kts | 232° |
| 2026-05-06 14:32 | 38.19396 | -122.32529 | 2099 ft | 195 kts | 245° |
| 2026-05-06 14:32 | 38.18876 | -122.34183 | 2769 ft | 209 kts | 250° |
| 2026-05-06 14:32 | 38.18041 | -122.35826 | 3425 ft | 238 kts | 224° |
| 2026-05-06 14:32 | 38.16569 | -122.37027 | 4086 ft | 267 kts | 199° |
| 2026-05-06 14:33 | 38.14702 | -122.37349 | 4741 ft | 274 kts | 178° |
| 2026-05-06 14:33 | 38.12892 | -122.36609 | 5345 ft | 279 kts | 143° |
| 2026-05-06 14:33 | 38.11451 | -122.34951 | 5969 ft | 282 kts | 139° |
| 2026-05-06 14:33 | 38.10048 | -122.33205 | 6579 ft | 287 kts | 118° |
| 2026-05-06 14:34 | 38.09553 | -122.30811 | 7160 ft | 280 kts | 84° |
| 2026-05-06 14:34 | 38.10171 | -122.28554 | 7765 ft | 271 kts | 51° |
| 2026-05-06 14:34 | 38.11665 | -122.27172 | 8380 ft | 270 kts | 18° |
| 2026-05-06 14:34 | 38.13536 | -122.26865 | 9024 ft | 275 kts | 359° |
| 2026-05-06 14:35 | 38.15403 | -122.27442 | 9650 ft | 283 kts | 333° |
| 2026-05-06 14:35 | 38.16864 | -122.29146 | 10275 ft | 293 kts | 304° |
| 2026-05-06 14:35 | 38.17562 | -122.31681 | 10882 ft | 320 kts | 278° |
| 2026-05-06 14:35 | 38.17335 | -122.34536 | 11506 ft | 330 kts | 257° |
| 2026-05-06 14:36 | 38.16512 | -122.37148 | 12094 ft | 316 kts | 238° |
| 2026-05-06 14:36 | 38.14939 | -122.38982 | 12485 ft | 308 kts | 209° |
| 2026-05-06 14:36 | 38.12866 | -122.39625 | 12488 ft | 310 kts | 177° |
| 2026-05-06 14:36 | 38.10788 | -122.39047 | 12504 ft | 304 kts | 160° |
| 2026-05-06 14:37 | 38.08797 | -122.38160 | 12502 ft | 301 kts | 160° |
| 2026-05-06 14:37 | 38.06788 | -122.37435 | 12496 ft | 299 kts | 166° |
| 2026-05-06 14:37 | 38.04721 | -122.37135 | 12488 ft | 300 kts | 178° |
| 2026-05-06 14:37 | 38.02632 | -122.37232 | 12438 ft | 303 kts | 183° |
| 2026-05-06 14:38 | 38.00480 | -122.37381 | 12064 ft | 314 kts | 181° |
| 2026-05-06 14:38 | 37.98299 | -122.37386 | 11702 ft | 312 kts | 178° |
| 2026-05-06 14:38 | 37.96147 | -122.37335 | 11338 ft | 307 kts | 179° |
| 2026-05-06 14:38 | 37.94051 | -122.37331 | 10980 ft | 302 kts | 180° |
| 2026-05-06 14:39 | 37.91961 | -122.37351 | 10622 ft | 298 kts | 180° |
| 2026-05-06 14:39 | 37.89892 | -122.37358 | 10269 ft | 295 kts | 179° |
| 2026-05-06 14:39 | 37.87842 | -122.37356 | 9898 ft | 292 kts | 179° |
| 2026-05-06 14:39 | 37.85817 | -122.37356 | 9514 ft | 289 kts | 179° |
| 2026-05-06 14:40 | 37.83807 | -122.37361 | 9134 ft | 287 kts | 180° |
| 2026-05-06 14:40 | 37.81814 | -122.37364 | 8760 ft | 286 kts | 180° |
| 2026-05-06 14:40 | 37.79834 | -122.37366 | 8388 ft | 284 kts | 180° |
| 2026-05-06 14:40 | 37.77879 | -122.37368 | 8020 ft | 284 kts | 180° |
| 2026-05-06 14:41 | 37.75910 | -122.37371 | 7662 ft | 283 kts | 180° |
| 2026-05-06 14:41 | 37.73914 | -122.37373 | 7031 ft | 292 kts | 180° |
| 2026-05-06 14:41 | 37.71855 | -122.37376 | 6394 ft | 299 kts | 180° |
| 2026-05-06 14:41 | 37.69747 | -122.37380 | 5729 ft | 304 kts | 180° |
| 2026-05-06 14:42 | 37.67649 | -122.37382 | 5510 ft | 293 kts | 180° |
| 2026-05-06 14:42 | 37.65662 | -122.37385 | 5265 ft | 284 kts | 180° |
| 2026-05-06 14:42 | 37.63698 | -122.37387 | 4898 ft | 280 kts | 180° |
| 2026-05-06 14:42 | 37.61794 | -122.37263 | 4512 ft | 276 kts | 169° |
| 2026-05-06 14:43 | 37.59971 | -122.36578 | 4136 ft | 272 kts | 160° |
| 2026-05-06 14:43 | 37.58172 | -122.35829 | 3764 ft | 270 kts | 161° |
| 2026-05-06 14:43 | 37.56400 | -122.35120 | 3503 ft | 262 kts | 161° |
| 2026-05-06 14:43 | 37.54717 | -122.34440 | 3492 ft | 248 kts | 161° |
| 2026-05-06 14:44 | 37.53099 | -122.33776 | 3498 ft | 243 kts | 160° |
| 2026-05-06 14:44 | 37.51479 | -122.33112 | 3499 ft | 247 kts | 161° |
| 2026-05-06 14:44 | 37.49834 | -122.32439 | 3505 ft | 251 kts | 161° |
| 2026-05-06 14:45 | 37.46475 | -122.31073 | 3516 ft | 254 kts | 161° |
| 2026-05-06 14:45 | 37.44810 | -122.30394 | 3518 ft | 254 kts | 161° |
| 2026-05-06 14:45 | 37.43127 | -122.29708 | 3515 ft | 254 kts | 161° |
| 2026-05-06 14:45 | 37.41446 | -122.29025 | 3514 ft | 253 kts | 161° |
| 2026-05-06 14:46 | 37.39781 | -122.28332 | 3507 ft | 251 kts | 158° |
| 2026-05-06 14:46 | 37.38282 | -122.27233 | 3503 ft | 250 kts | 141° |
| 2026-05-06 14:46 | 37.36899 | -122.25898 | 3501 ft | 250 kts | 142° |
| 2026-05-06 14:46 | 37.35503 | -122.24599 | 3502 ft | 249 kts | 142° |
| 2026-05-06 14:47 | 37.34131 | -122.23317 | 3503 ft | 249 kts | 142° |
| 2026-05-06 14:47 | 37.32741 | -122.22006 | 3499 ft | 250 kts | 142° |
| 2026-05-06 14:47 | 37.31343 | -122.20693 | 3509 ft | 251 kts | 142° |
| 2026-05-06 14:47 | 37.29943 | -122.19376 | 3511 ft | 252 kts | 142° |
| 2026-05-06 14:48 | 37.28538 | -122.18058 | 3509 ft | 252 kts | 142° |
| 2026-05-06 14:48 | 37.27134 | -122.16739 | 3507 ft | 251 kts | 142° |
| 2026-05-06 14:48 | 37.25751 | -122.15445 | 3679 ft | 242 kts | 142° |
| 2026-05-06 14:48 | 37.24400 | -122.14178 | 4150 ft | 249 kts | 142° |
| 2026-05-06 14:49 | 37.22974 | -122.12832 | 4661 ft | 262 kts | 141° |
| 2026-05-06 14:49 | 37.21495 | -122.11452 | 5174 ft | 267 kts | 141° |
| 2026-05-06 14:49 | 37.20001 | -122.10063 | 5653 ft | 272 kts | 141° |
| 2026-05-06 14:49 | 37.18467 | -122.08636 | 6147 ft | 277 kts | 140° |
| 2026-05-06 14:50 | 37.16909 | -122.07149 | 6490 ft | 289 kts | 140° |
| 2026-05-06 14:50 | 37.15273 | -122.05620 | 6487 ft | 294 kts | 141° |
| 2026-05-06 14:50 | 37.13643 | -122.04113 | 6495 ft | 287 kts | 141° |
| 2026-05-06 14:50 | 37.12061 | -122.02637 | 6494 ft | 281 kts | 140° |
| 2026-05-06 14:51 | 37.10497 | -122.01176 | 6484 ft | 279 kts | 141° |
| 2026-05-06 14:51 | 37.08932 | -121.99712 | 6488 ft | 281 kts | 140° |
| 2026-05-06 14:51 | 37.07364 | -121.98253 | 6491 ft | 281 kts | 141° |
| 2026-05-06 14:51 | 37.05782 | -121.96810 | 6484 ft | 282 kts | 146° |
| 2026-05-06 14:52 | 37.03922 | -121.96133 | 6475 ft | 287 kts | 179° |
| 2026-05-06 14:52 | 37.01965 | -121.96475 | 6407 ft | 282 kts | 194° |
| 2026-05-06 14:52 | 37.00073 | -121.96989 | 6241 ft | 270 kts | 191° |
| 2026-05-06 14:52 | 36.98278 | -121.97285 | 6206 ft | 250 kts | 185° |
| 2026-05-06 14:53 | 36.96593 | -121.97446 | 6065 ft | 239 kts | 185° |
| 2026-05-06 14:53 | 36.95496 | -121.97569 | 5841 ft | 238 kts | 186° |
| 2026-05-06 14:53 | 36.93859 | -121.97786 | 5577 ft | 234 kts | 186° |
| 2026-05-06 14:53 | 36.92247 | -121.98002 | 5290 ft | 232 kts | 186° |
| 2026-05-06 14:54 | 36.90653 | -121.98208 | 5002 ft | 229 kts | 185° |
| 2026-05-06 14:54 | 36.88562 | -121.98477 | 4620 ft | 225 kts | 185° |
| 2026-05-06 14:54 | 36.87511 | -121.98612 | 4430 ft | 223 kts | 185° |
| 2026-05-06 14:54 | 36.85976 | -121.98810 | 4153 ft | 220 kts | 185° |
| 2026-05-06 14:55 | 36.84460 | -121.99006 | 3883 ft | 217 kts | 185° |
| 2026-05-06 14:55 | 36.82984 | -121.99197 | 3618 ft | 214 kts | 185° |
| 2026-05-06 14:55 | 36.81511 | -121.99387 | 3350 ft | 211 kts | 185° |
| 2026-05-06 14:55 | 36.80053 | -121.99574 | 3044 ft | 210 kts | 186° |
| 2026-05-06 14:56 | 36.78597 | -121.99761 | 2738 ft | 209 kts | 186° |
| 2026-05-06 14:56 | 36.77163 | -121.99947 | 2602 ft | 202 kts | 186° |
| 2026-05-06 14:56 | 36.75785 | -122.00123 | 2592 ft | 197 kts | 186° |
| 2026-05-06 14:56 | 36.74396 | -122.00302 | 2600 ft | 204 kts | 186° |
| 2026-05-06 14:57 | 36.72960 | -122.00487 | 2614 ft | 210 kts | 186° |
| 2026-05-06 14:57 | 36.71490 | -122.00676 | 2610 ft | 215 kts | 185° |
| 2026-05-06 14:57 | 36.70021 | -122.00864 | 2611 ft | 214 kts | 185° |
| 2026-05-06 14:57 | 36.68559 | -122.01052 | 2498 ft | 209 kts | 185° |
| 2026-05-06 14:58 | 36.67100 | -122.01226 | 2148 ft | 210 kts | 182° |
| 2026-05-06 14:58 | 36.65674 | -122.00928 | 1863 ft | 208 kts | 159° |
| 2026-05-06 14:58 | 36.64445 | -122.00039 | 1702 ft | 200 kts | 137° |
| 2026-05-06 14:58 | 36.63578 | -121.98767 | 1696 ft | 186 kts | 118° |
| 2026-05-06 14:59 | 36.63077 | -121.97374 | 1703 ft | 164 kts | 110° |
| 2026-05-06 14:59 | 36.62657 | -121.96143 | 1672 ft | 148 kts | 111° |
| 2026-05-06 14:59 | 36.62243 | -121.94939 | 1716 ft | 158 kts | 111° |
| 2026-05-06 14:59 | 36.61810 | -121.93651 | 1746 ft | 163 kts | 110° |
| 2026-05-06 15:00 | 36.61378 | -121.92383 | 1600 ft | 159 kts | 112° |
| 2026-05-06 15:00 | 36.60948 | -121.91131 | 1454 ft | 154 kts | 110° |
| 2026-05-06 15:00 | 36.60528 | -121.89935 | 1261 ft | 149 kts | 111° |
| 2026-05-06 15:00 | 36.60155 | -121.88823 | 1104 ft | 129 kts | 110° |
| 2026-05-06 15:01 | 36.59807 | -121.87794 | 810 ft | 129 kts | 111° |
| 2026-05-06 15:01 | 36.59458 | -121.86763 | 547 ft | 128 kts | 109° |
| 2026-05-06 15:01 | 36.59138 | -121.85745 | 238 ft | 121 kts | 110° |
| 2026-05-06 15:01 | 36.58863 | -121.84904 | 196 ft | 83 kts | 114° |
| 2026-05-06 15:02 | 36.58710 | -121.84594 | 212 ft | 22 kts | 167° |
| 2026-05-06 15:02 | 36.58675 | -121.84625 | 214 ft | 12 kts | 267° |
| 2026-05-06 15:02 | 36.58712 | -121.84758 | 206 ft | 19 kts | 262° |
| 2026-05-06 15:02 | 36.58692 | -121.84801 | 213 ft | 0 kts | 192° |